createdAt,value
2019-05-17T00:02:17.593Z,100485.58
2019-05-17T00:04:47.397Z,100485.27
2019-05-17T00:07:17.194Z,100480.81
2019-05-17T00:09:47.855Z,100475.02
2019-05-17T00:12:17.936Z,100476.00
2019-05-17T00:14:47.823Z,100470.73
2019-05-17T00:17:17.598Z,100464.50
2019-05-17T00:19:47.236Z,100459.59
2019-05-17T00:22:16.934Z,100458.09
2019-05-17T00:24:47.722Z,100458.62
2019-05-17T00:27:17.427Z,100450.37
2019-05-17T00:29:47.047Z,100441.66
2019-05-17T00:32:17.267Z,100441.00
2019-05-17T00:34:47.116Z,100436.53
2019-05-17T00:37:17.420Z,100438.20
2019-05-17T00:39:47.345Z,100433.42
2019-05-17T00:42:17.213Z,100430.77
2019-05-17T00:44:47.401Z,100429.47
2019-05-17T00:47:17.300Z,100429.65
2019-05-17T00:49:46.894Z,100422.73
2019-05-17T00:52:16.797Z,100419.28
2019-05-17T00:54:46.901Z,100413.52
2019-05-17T00:57:16.790Z,100420.09
2019-05-17T00:59:47.608Z,100413.49
2019-05-17T01:02:17.348Z,100408.56
2019-05-17T01:04:47.650Z,100405.41
2019-05-17T01:07:17.836Z,100399.03
2019-05-17T01:09:47.537Z,100405.75
2019-05-17T01:12:17.357Z,100403.60
2019-05-17T01:14:46.931Z,100397.21
2019-05-17T01:17:16.702Z,100391.12
2019-05-17T01:19:47.262Z,100392.45
2019-05-17T01:22:17.065Z,100396.40
2019-05-17T01:24:46.759Z,100395.91
2019-05-17T01:27:17.201Z,100394.73
2019-05-17T01:29:47.010Z,100386.69
2019-05-17T01:32:17.191Z,100374.03
2019-05-17T01:34:47.153Z,100375.50
2019-05-17T01:37:17.305Z,100379.45
2019-05-17T01:39:47.001Z,100379.45
2019-05-17T01:42:17.192Z,100372.87
2019-05-17T01:44:47.345Z,100370.23
2019-05-17T01:47:17.051Z,100373.05
2019-05-17T01:49:47.066Z,100364.14
2019-05-17T01:52:16.918Z,100368.77
2019-05-17T01:54:47.081Z,100363.64
2019-05-17T01:57:16.955Z,100364.48
2019-05-17T01:59:46.846Z,100360.86
2019-05-17T02:02:23.947Z,100363.31
2019-05-17T02:04:53.699Z,100361.70
2019-05-17T02:07:23.344Z,100358.73
2019-05-17T02:09:53.000Z,100358.38
2019-05-17T02:12:22.636Z,100352.48
2019-05-17T02:14:52.229Z,100353.12
2019-05-17T02:17:21.908Z,100354.44
2019-05-17T02:19:51.478Z,100353.62
2019-05-17T02:22:21.046Z,100348.84
2019-05-17T02:24:50.640Z,100348.04
2019-05-17T02:27:21.981Z,100346.55
2019-05-17T02:29:51.965Z,100349.67
2019-05-17T02:32:23.508Z,100340.14
2019-05-17T02:34:53.194Z,100342.59
2019-05-17T02:37:23.255Z,100339.47
2019-05-17T02:40:02.429Z,100341.27
2019-05-17T02:42:24.198Z,100338.48
2019-05-17T02:44:53.820Z,100331.55
2019-05-17T02:47:23.483Z,100331.41
2019-05-17T02:49:53.071Z,100333.23
2019-05-17T02:52:23.083Z,100336.19
2019-05-17T02:54:52.931Z,100335.36
2019-05-17T02:57:23.463Z,100336.33
2019-05-17T02:59:53.214Z,100332.03
2019-05-17T03:02:27.590Z,100332.52
2019-05-17T03:04:54.060Z,100331.54
2019-05-17T03:07:23.659Z,100331.38
2019-05-17T03:10:03.967Z,100331.22
2019-05-17T03:12:24.486Z,100325.32
2019-05-17T03:14:54.243Z,100327.59
2019-05-17T03:17:23.831Z,100325.95
2019-05-17T03:19:53.403Z,100321.70
2019-05-17T03:22:23.294Z,100319.56
2019-05-17T03:24:53.459Z,100319.88
2019-05-17T03:27:23.481Z,100320.69
2019-05-17T03:29:53.878Z,100318.39
2019-05-17T03:32:26.558Z,100319.07
2019-05-17T03:34:56.747Z,100310.66
2019-05-17T03:37:32.505Z,100309.03
2019-05-17T03:39:57.795Z,100314.94
2019-05-17T03:42:27.532Z,100300.95
2019-05-17T03:44:57.424Z,100307.04
2019-05-17T03:47:27.002Z,100306.41
2019-05-17T03:49:56.758Z,100307.23
2019-05-17T03:52:26.355Z,100297.48
2019-05-17T03:54:56.044Z,100302.75
2019-05-17T03:57:25.573Z,100307.38
2019-05-17T03:59:55.153Z,100303.42
2019-05-17T04:02:24.835Z,100297.68
2019-05-17T04:04:54.485Z,100299.98
2019-05-17T04:07:24.073Z,100300.47
2019-05-17T04:09:53.659Z,100302.13
2019-05-17T04:12:23.484Z,100294.87
2019-05-17T04:14:53.606Z,100293.89
2019-05-17T04:17:23.249Z,100295.20
2019-05-17T04:19:53.481Z,100297.50
2019-05-17T04:22:24.003Z,100298.02
2019-05-17T04:24:53.677Z,100297.84
2019-05-17T04:27:23.330Z,100297.84
2019-05-17T04:29:53.423Z,100294.56
2019-05-17T04:32:23.566Z,100294.87
2019-05-17T04:34:53.254Z,100291.94
2019-05-17T04:37:23.190Z,100291.27
2019-05-17T04:39:52.881Z,100286.00
2019-05-17T04:42:22.922Z,100291.59
2019-05-17T04:44:52.997Z,100289.30
2019-05-17T04:47:23.093Z,100284.05
2019-05-17T04:49:53.821Z,100284.04
2019-05-17T04:52:23.506Z,100281.56
2019-05-17T04:54:53.923Z,100276.62
2019-05-17T04:57:23.629Z,100282.05
2019-05-17T04:59:53.178Z,100279.75
2019-05-17T05:02:23.655Z,100287.65
2019-05-17T05:04:53.600Z,100288.97
2019-05-17T05:07:23.213Z,100286.98
2019-05-17T05:09:52.829Z,100284.34
2019-05-17T05:12:22.981Z,100289.13
2019-05-17T05:14:52.539Z,100280.92
2019-05-17T05:17:22.300Z,100285.35
2019-05-17T05:19:53.063Z,100287.98
2019-05-17T05:22:22.898Z,100279.08
2019-05-17T05:24:52.597Z,100283.36
2019-05-17T05:27:22.391Z,100287.80
2019-05-17T05:29:52.253Z,100287.15
2019-05-17T05:32:22.123Z,100285.02
2019-05-17T05:34:52.052Z,100285.66
2019-05-17T05:37:23.169Z,100286.67
2019-05-17T05:39:54.681Z,100286.66
2019-05-17T05:42:24.459Z,100282.05
2019-05-17T05:44:55.561Z,100286.33
2019-05-17T05:47:25.198Z,100281.40
2019-05-17T05:49:54.784Z,100288.80
2019-05-17T05:52:24.354Z,100287.64
2019-05-17T05:54:54.003Z,100281.89
2019-05-17T05:57:23.574Z,100285.02
2019-05-17T05:59:53.163Z,100283.35
2019-05-17T06:02:22.735Z,100285.66
2019-05-17T06:04:52.303Z,100284.49
2019-05-17T06:07:21.906Z,100277.08
2019-05-17T06:09:51.868Z,100273.11
2019-05-17T06:12:27.591Z,100277.73
2019-05-17T06:14:52.807Z,100279.56
2019-05-17T06:17:22.364Z,100270.47
2019-05-17T06:19:52.298Z,100276.40
2019-05-17T06:22:22.479Z,100279.81
2019-05-17T06:24:52.186Z,100270.42
2019-05-17T06:27:21.729Z,100270.42
2019-05-17T06:29:51.612Z,100274.89
2019-05-17T06:32:22.803Z,100270.92
2019-05-17T06:34:52.620Z,100261.73
2019-05-17T06:37:22.519Z,100266.64
2019-05-17T06:39:52.753Z,100260.73
2019-05-17T06:42:37.023Z,100261.22
2019-05-17T06:44:53.593Z,100270.11
2019-05-17T06:47:23.547Z,100263.02
2019-05-17T06:49:53.646Z,100257.92
2019-05-17T06:52:23.405Z,100263.50
2019-05-17T06:54:52.995Z,100249.69
2019-05-17T06:57:23.267Z,100255.30
2019-05-17T06:59:53.078Z,100257.94
2019-05-17T07:02:22.717Z,100260.57
2019-05-17T07:04:54.034Z,100254.30
2019-05-17T07:07:26.457Z,100253.34
2019-05-17T07:10:00.522Z,100257.42
2019-05-17T07:12:30.955Z,100261.37
2019-05-17T07:15:01.676Z,100258.91
2019-05-17T07:17:31.600Z,100256.78
2019-05-17T07:20:01.995Z,100260.87
2019-05-17T07:22:31.605Z,100250.05
2019-05-17T07:25:01.186Z,100252.14
2019-05-17T07:27:40.640Z,100251.64
2019-05-17T07:30:02.303Z,100250.34
2019-05-17T07:32:31.931Z,100248.54
2019-05-17T07:35:01.507Z,100244.77
2019-05-17T07:37:31.104Z,100246.37
2019-05-17T07:40:04.740Z,100250.64
2019-05-17T07:42:32.020Z,100246.37
2019-05-17T07:45:01.630Z,100239.94
2019-05-17T07:47:31.219Z,100241.06
2019-05-17T07:50:01.361Z,100236.61
2019-05-17T07:52:30.918Z,100233.52
2019-05-17T07:55:02.287Z,100226.28
2019-05-17T07:57:31.844Z,100229.92
2019-05-17T08:00:01.600Z,100229.71
2019-05-17T08:02:31.181Z,100227.08
2019-05-17T08:05:00.847Z,100222.02
2019-05-17T08:07:30.487Z,100222.33
2019-05-17T08:10:00.372Z,100221.31
2019-05-17T08:12:30.661Z,100214.90
2019-05-17T08:15:00.429Z,100217.20
2019-05-17T08:17:30.749Z,100214.66
2019-05-17T08:20:00.877Z,100215.31
2019-05-17T08:22:30.566Z,100219.27
2019-05-17T08:25:00.316Z,100208.52
2019-05-17T08:27:30.076Z,100211.52
2019-05-17T08:30:00.027Z,100209.44
2019-05-17T08:32:31.550Z,100205.69
2019-05-17T08:35:02.006Z,100203.34
2019-05-17T08:37:31.583Z,100203.51
2019-05-17T08:40:01.825Z,100204.05
2019-05-17T08:42:31.733Z,100201.53
2019-05-17T08:45:01.636Z,100203.52
2019-05-17T08:47:31.343Z,100205.05
2019-05-17T08:50:01.284Z,100200.72
2019-05-17T08:52:30.878Z,100197.58
2019-05-17T08:55:00.583Z,100196.27
2019-05-17T08:57:30.511Z,100189.45
2019-05-17T09:00:00.982Z,100186.54
2019-05-17T09:02:30.823Z,100187.34
2019-05-17T09:05:00.705Z,100187.66
2019-05-17T09:07:30.276Z,100179.91
2019-05-17T09:10:01.710Z,100179.87
2019-05-17T09:12:31.911Z,100176.22
2019-05-17T09:15:01.937Z,100183.31
2019-05-17T09:17:31.498Z,100176.97
2019-05-17T09:20:01.070Z,100176.51
2019-05-17T09:22:31.249Z,100171.27
2019-05-17T09:25:00.814Z,100164.80
2019-05-17T09:27:30.634Z,100161.41
2019-05-17T09:30:00.287Z,100164.08
2019-05-17T09:32:29.884Z,100161.67
2019-05-17T09:35:00.424Z,100159.56
2019-05-17T09:37:30.495Z,100159.56
2019-05-17T09:40:00.222Z,100154.25
2019-05-17T09:42:30.180Z,100166.09
2019-05-17T09:45:00.344Z,100168.09
2019-05-17T09:47:30.276Z,100155.09
2019-05-17T09:50:00.617Z,100157.53
2019-05-17T09:52:30.312Z,100156.84
2019-05-17T09:55:00.627Z,100152.66
2019-05-17T09:57:30.432Z,100152.03
2019-05-17T10:00:00.338Z,100150.52
2019-05-17T10:02:30.024Z,100151.76
2019-05-17T10:04:59.933Z,100153.03
2019-05-17T10:07:29.934Z,100156.89
2019-05-17T10:09:59.885Z,100147.36
2019-05-17T10:12:29.555Z,100149.57
2019-05-17T10:15:00.441Z,100151.16
2019-05-17T10:17:30.219Z,100151.02
2019-05-17T10:20:00.060Z,100148.19
2019-05-17T10:22:30.365Z,100149.67
2019-05-17T10:25:00.412Z,100140.67
2019-05-17T10:27:30.382Z,100144.09
2019-05-17T10:30:00.042Z,100142.41
2019-05-17T10:32:30.951Z,100149.30
2019-05-17T10:35:00.891Z,100142.63
2019-05-17T10:37:30.533Z,100141.29
2019-05-17T10:40:00.126Z,100143.52
2019-05-17T10:42:30.544Z,100145.04
2019-05-17T10:45:00.295Z,100148.09
2019-05-17T10:47:30.276Z,100146.28
2019-05-17T10:49:59.968Z,100150.97
2019-05-17T10:52:30.095Z,100148.08
2019-05-17T10:55:00.030Z,100140.98
2019-05-17T10:57:30.238Z,100146.30
2019-05-17T11:00:00.069Z,100143.02
2019-05-17T11:02:30.445Z,100147.27
2019-05-17T11:05:00.697Z,100145.17
2019-05-17T11:07:30.664Z,100138.22
2019-05-17T11:10:00.733Z,100142.47
2019-05-17T11:12:30.512Z,100142.56
2019-05-17T11:15:10.300Z,100144.53
2019-05-17T11:17:31.388Z,100137.00
2019-05-17T11:20:00.943Z,100134.58
2019-05-17T11:22:30.598Z,100129.31
2019-05-17T11:25:00.147Z,100132.82
2019-05-17T11:27:29.740Z,100135.25
2019-05-17T11:29:59.413Z,100139.25
2019-05-17T11:32:28.998Z,100142.40
2019-05-17T11:34:58.611Z,100134.31
2019-05-17T11:37:28.218Z,100131.41
2019-05-17T11:39:57.776Z,100134.81
2019-05-17T11:42:27.371Z,100131.38
2019-05-17T11:44:56.948Z,100137.05
2019-05-17T11:47:26.518Z,100131.00
2019-05-17T11:49:56.157Z,100132.97
2019-05-17T11:52:25.805Z,100127.64
2019-05-17T11:54:55.592Z,100126.55
2019-05-17T11:57:25.258Z,100122.47
2019-05-17T11:59:54.818Z,100121.53
2019-05-17T12:02:24.392Z,100114.22
2019-05-17T12:04:53.984Z,100113.48
2019-05-17T12:07:23.575Z,100115.10
2019-05-17T12:09:53.127Z,100112.11
2019-05-17T12:12:22.710Z,100111.28
2019-05-17T12:14:52.281Z,100113.11
2019-05-17T12:17:21.851Z,100110.58
2019-05-17T12:19:51.423Z,100109.88
2019-05-17T12:22:21.017Z,100117.28
2019-05-17T12:24:50.876Z,100110.28
2019-05-17T12:27:20.661Z,100108.28
2019-05-17T12:29:50.323Z,100106.75
2019-05-17T12:32:20.022Z,100114.83
2019-05-17T12:34:49.623Z,100109.59
2019-05-17T12:37:19.256Z,100106.31
2019-05-17T12:39:48.843Z,100113.38
2019-05-17T12:42:18.432Z,100112.27
2019-05-17T12:44:48.006Z,100108.45
2019-05-17T12:47:17.703Z,100110.31
2019-05-17T12:49:47.297Z,100108.09
2019-05-17T12:52:16.965Z,100107.34
2019-05-17T12:54:48.377Z,100111.59
2019-05-17T12:57:18.039Z,100100.64
2019-05-17T12:59:47.636Z,100102.48
2019-05-17T13:02:17.499Z,100101.00
2019-05-17T13:04:47.068Z,100103.05
2019-05-17T13:07:16.759Z,100095.23
2019-05-17T13:09:46.399Z,100092.28
2019-05-17T13:12:15.992Z,100089.63
2019-05-17T13:14:45.553Z,100093.96
2019-05-17T13:17:15.297Z,100093.20
2019-05-17T13:19:44.871Z,100096.00
2019-05-17T13:22:14.508Z,100092.98
2019-05-17T13:24:45.681Z,100097.13
2019-05-17T13:27:15.354Z,100085.02
2019-05-17T13:29:44.920Z,100094.19
2019-05-17T13:32:14.512Z,100090.80
2019-05-17T13:34:44.116Z,100091.64
2019-05-17T13:37:13.685Z,100092.35
2019-05-17T13:39:43.246Z,100083.59
2019-05-17T13:42:12.855Z,100085.30
2019-05-17T13:44:42.586Z,100085.94
2019-05-17T13:47:12.178Z,100077.77
2019-05-17T13:49:41.915Z,100074.28
2019-05-17T13:52:11.491Z,100070.73
2019-05-17T13:54:41.339Z,100072.75
2019-05-17T13:57:11.537Z,100066.71
2019-05-17T13:59:41.160Z,100062.81
2019-05-17T14:02:10.772Z,100052.78
2019-05-17T14:04:40.332Z,100047.52
2019-05-17T14:07:10.042Z,100049.63
2019-05-17T14:09:39.716Z,100055.77
2019-05-17T14:12:09.422Z,100055.22
2019-05-17T14:14:38.994Z,100054.98
2019-05-17T14:17:08.840Z,100052.84
2019-05-17T14:19:38.401Z,100051.09
2019-05-17T14:22:07.992Z,100046.42
2019-05-17T14:24:37.581Z,100040.02
2019-05-17T14:27:09.024Z,100044.27
2019-05-17T14:29:38.635Z,100041.99
2019-05-17T14:32:08.712Z,100042.17
2019-05-17T14:34:38.654Z,100041.05
2019-05-17T14:37:08.230Z,100032.99
2019-05-17T14:39:37.823Z,100021.70
2019-05-17T14:42:07.498Z,100021.70
2019-05-17T14:44:37.174Z,100016.69
2019-05-17T14:47:06.909Z,100023.16
2019-05-17T14:49:37.341Z,100014.63
2019-05-17T14:52:07.293Z,100018.08
2019-05-17T14:54:36.954Z,100016.67
2019-05-17T14:57:06.621Z,100017.44
2019-05-17T14:59:36.193Z,100006.86
2019-05-17T15:02:05.773Z,100008.41
2019-05-17T15:04:35.432Z,99998.72
2019-05-17T15:07:05.122Z,100002.06
2019-05-17T15:09:35.392Z,100001.44
2019-05-17T15:12:05.033Z,99999.53
2019-05-17T15:14:35.389Z,99999.38
2019-05-17T15:17:05.143Z,99993.47
2019-05-17T15:19:35.336Z,99997.40
2019-05-17T15:22:05.113Z,99979.83
2019-05-17T15:24:35.451Z,99990.12
2019-05-17T15:27:06.320Z,99983.52
2019-05-17T15:29:36.033Z,99979.09
2019-05-17T15:32:05.657Z,99977.25
2019-05-17T15:34:35.418Z,99975.68
2019-05-17T15:37:05.246Z,99960.58
2019-05-17T15:39:35.504Z,99972.05
2019-05-17T15:42:05.132Z,99980.50
2019-05-17T15:44:35.637Z,99967.56
2019-05-17T15:47:05.254Z,99954.00
2019-05-17T15:49:35.353Z,99974.56
2019-05-17T15:52:05.272Z,99972.11
2019-05-17T15:54:35.506Z,99970.20
2019-05-17T15:57:05.214Z,99960.20
2019-05-17T15:59:35.481Z,99962.66
2019-05-17T16:02:05.455Z,99966.30
2019-05-17T16:04:35.454Z,99972.28
2019-05-17T16:07:05.310Z,99959.72
2019-05-17T16:09:35.421Z,99955.41
2019-05-17T16:12:05.120Z,99959.98
2019-05-17T16:14:35.515Z,99959.45
2019-05-17T16:17:05.138Z,99955.26
2019-05-17T16:19:35.344Z,99957.31
2019-05-17T16:22:05.003Z,99954.80
2019-05-17T16:24:35.486Z,99948.47
2019-05-17T16:27:05.175Z,99948.47
2019-05-17T16:29:35.461Z,99953.48
2019-05-17T16:32:05.174Z,99934.17
2019-05-17T16:34:35.491Z,99955.56
2019-05-17T16:37:05.137Z,99949.63
2019-05-17T16:39:35.418Z,99949.35
2019-05-17T16:42:05.124Z,99940.75
2019-05-17T16:44:35.541Z,99949.73
2019-05-17T16:47:05.261Z,99946.56
2019-05-17T16:49:35.476Z,99949.15
2019-05-17T16:52:05.264Z,99944.38
2019-05-17T16:54:35.389Z,99947.03
2019-05-17T16:57:05.047Z,99925.50
2019-05-17T16:59:35.508Z,99947.67
2019-05-17T17:02:05.380Z,99941.12
2019-05-17T17:04:35.464Z,99946.11
2019-05-17T17:07:05.164Z,99936.76
2019-05-17T17:09:35.501Z,99938.52
2019-05-17T17:12:05.348Z,99937.91
2019-05-17T17:14:35.573Z,99939.89
2019-05-17T17:17:10.904Z,99929.78
2019-05-17T17:19:36.587Z,99936.83
2019-05-17T17:22:06.292Z,99942.00
2019-05-17T17:24:35.947Z,99937.47
2019-05-17T17:27:05.579Z,99940.56
2019-05-17T17:29:35.516Z,99945.63
2019-05-17T17:32:05.148Z,99920.55
2019-05-17T17:34:35.566Z,99936.27
2019-05-17T17:37:05.847Z,99937.44
2019-05-17T17:39:35.540Z,99943.08
2019-05-17T17:42:05.577Z,99943.08
2019-05-17T17:44:35.471Z,99947.37
2019-05-17T17:47:05.206Z,99942.09
2019-05-17T17:49:35.625Z,99951.03
2019-05-17T17:52:05.261Z,99943.90
2019-05-17T17:54:35.563Z,99952.59
2019-05-17T17:57:05.338Z,99937.21
2019-05-17T17:59:35.539Z,99948.30
2019-05-17T18:02:05.297Z,99944.31
2019-05-17T18:04:35.597Z,99945.64
2019-05-17T18:07:05.887Z,99951.70
2019-05-17T18:09:35.601Z,99949.94
2019-05-17T18:12:05.425Z,99948.42
2019-05-17T18:14:35.648Z,99948.42
2019-05-17T18:17:05.473Z,99949.40
2019-05-17T18:19:35.558Z,99944.21
2019-05-17T18:22:05.245Z,99950.27
2019-05-17T18:24:35.614Z,99955.69
2019-05-17T18:27:05.254Z,99952.80
2019-05-17T18:29:35.577Z,99954.48
2019-05-17T18:32:05.569Z,99937.05
2019-05-17T18:34:35.602Z,99949.98
2019-05-17T18:37:05.432Z,99950.09
2019-05-17T18:39:35.531Z,99954.08
2019-05-17T18:42:05.225Z,99943.77
2019-05-17T18:44:35.545Z,99944.36
2019-05-17T18:47:05.240Z,99945.21
2019-05-17T18:49:35.625Z,99953.48
2019-05-17T18:52:05.324Z,99960.52
2019-05-17T18:54:35.527Z,99960.86
2019-05-17T18:57:05.125Z,99960.86
2019-05-17T18:59:35.545Z,99963.09
2019-05-17T19:02:05.264Z,99944.02
2019-05-17T19:04:35.546Z,99970.15
2019-05-17T19:07:05.187Z,99960.97
2019-05-17T19:09:35.655Z,99965.66
2019-05-17T19:12:05.351Z,99973.84
2019-05-17T19:14:43.047Z,99970.87
2019-05-17T19:17:07.083Z,99974.55
2019-05-17T19:19:36.736Z,99967.83
2019-05-17T19:22:06.597Z,99971.29
2019-05-17T19:24:36.256Z,99974.66
2019-05-17T19:27:05.886Z,99971.41
2019-05-17T19:29:35.674Z,99968.84
2019-05-17T19:32:05.515Z,99974.45
2019-05-17T19:34:35.708Z,99980.28
2019-05-17T19:37:05.288Z,99979.88
2019-05-17T19:39:35.620Z,99984.37
2019-05-17T19:42:05.252Z,99984.27
2019-05-17T19:44:35.588Z,99989.78
2019-05-17T19:47:05.232Z,99987.93
2019-05-17T19:49:35.734Z,99983.63
2019-05-17T19:52:05.507Z,99994.97
2019-05-17T19:54:36.058Z,99994.67
2019-05-17T19:57:05.691Z,99977.64
2019-05-17T19:59:35.659Z,100000.08
2019-05-17T20:02:06.593Z,99978.25
2019-05-17T20:04:36.287Z,99997.95
2019-05-17T20:07:06.069Z,100000.60
2019-05-17T20:09:35.736Z,99993.27
2019-05-17T20:12:05.543Z,99997.34
2019-05-17T20:14:35.749Z,99997.02
2019-05-17T20:17:05.398Z,99986.30
2019-05-17T20:19:35.633Z,99992.73
2019-05-17T20:22:05.283Z,99983.75
2019-05-17T20:24:35.718Z,99992.13
2019-05-17T20:27:05.345Z,99992.13
2019-05-17T20:29:35.650Z,99993.52
2019-05-17T20:32:05.290Z,99993.52
2019-05-17T20:34:35.661Z,99990.36
2019-05-17T20:37:05.420Z,99972.91
2019-05-17T20:39:35.688Z,99993.83
2019-05-17T20:42:05.410Z,99988.50
2019-05-17T20:44:35.732Z,99984.02
2019-05-17T20:47:05.371Z,99980.16
2019-05-17T20:49:35.743Z,99981.58
2019-05-17T20:52:05.460Z,99979.44
2019-05-17T20:54:35.941Z,99984.84
2019-05-17T20:57:05.568Z,99986.14
2019-05-17T20:59:35.776Z,99986.96
2019-05-17T21:02:05.471Z,99988.10
2019-05-17T21:04:35.764Z,99985.86
2019-05-17T21:07:05.529Z,99989.43
2019-05-17T21:09:35.770Z,99985.45
2019-05-17T21:12:05.422Z,99982.17
2019-05-17T21:14:35.828Z,99989.61
2019-05-17T21:17:05.478Z,99986.96
2019-05-17T21:19:35.825Z,99985.13
2019-05-17T21:22:05.681Z,99968.16
2019-05-17T21:24:35.780Z,99987.75
2019-05-17T21:27:05.450Z,99993.24
2019-05-17T21:29:35.872Z,99987.84
2019-05-17T21:32:05.454Z,99989.08
2019-05-17T21:34:35.769Z,99995.61
2019-05-17T21:37:05.419Z,99999.05
2019-05-17T21:39:35.732Z,99996.48
2019-05-17T21:42:05.384Z,99995.94
2019-05-17T21:44:35.790Z,99997.66
2019-05-17T21:47:05.441Z,99992.05
2019-05-17T21:49:35.845Z,99991.08
2019-05-17T21:52:06.138Z,99974.77
2019-05-17T21:54:35.883Z,99983.11
2019-05-17T21:57:05.454Z,99972.65
2019-05-17T21:59:35.807Z,99973.25
2019-05-17T22:02:05.612Z,99977.70
2019-05-17T22:04:35.831Z,99977.06
2019-05-17T22:07:05.951Z,99976.45
2019-05-17T22:09:35.858Z,99971.83
2019-05-17T22:12:07.144Z,99973.15
2019-05-17T22:14:36.948Z,99969.09
2019-05-17T22:17:06.533Z,99972.97
2019-05-17T22:19:36.107Z,99973.91
2019-05-17T22:22:05.829Z,99973.23
2019-05-17T22:24:35.764Z,99976.78
2019-05-17T22:27:05.409Z,99972.05
2019-05-17T22:29:35.901Z,99974.81
2019-05-17T22:32:05.683Z,99948.27
2019-05-17T22:34:35.860Z,99972.17
2019-05-17T22:37:05.454Z,99969.81
2019-05-17T22:39:35.826Z,99970.13
2019-05-17T22:42:05.402Z,99966.92
2019-05-17T22:44:35.873Z,99967.38
2019-05-17T22:47:05.517Z,99971.70
2019-05-17T22:49:35.896Z,99974.71
2019-05-17T22:52:05.672Z,99977.13
2019-05-17T22:54:35.849Z,99975.41
2019-05-17T22:57:05.505Z,99961.45
2019-05-17T22:59:35.870Z,99969.77
2019-05-17T23:02:05.420Z,99976.17
2019-05-17T23:04:35.892Z,99971.02
2019-05-17T23:07:05.599Z,99981.59
2019-05-17T23:09:35.917Z,99983.11
2019-05-17T23:12:05.479Z,99976.77
2019-05-17T23:14:35.935Z,99980.72
2019-05-17T23:17:05.585Z,99965.44
2019-05-17T23:19:35.807Z,99980.22
2019-05-17T23:22:08.579Z,99982.49
2019-05-17T23:24:38.707Z,99978.98
2019-05-17T23:27:09.573Z,99987.58
2019-05-17T23:29:41.271Z,99979.83
2019-05-17T23:32:11.059Z,99976.70
2019-05-17T23:34:40.623Z,99973.98
2019-05-17T23:37:10.203Z,99969.20
2019-05-17T23:39:39.940Z,99963.63
2019-05-17T23:42:09.515Z,99969.20
2019-05-17T23:44:39.070Z,99974.17
2019-05-17T23:47:08.657Z,99964.31
2019-05-17T23:49:38.213Z,99971.52
2019-05-17T23:52:07.797Z,99964.55
2019-05-17T23:54:37.374Z,99966.23
2019-05-17T23:57:06.930Z,99964.27
2019-05-17T23:59:36.495Z,99963.06
